sensor_id;sensor_type;location;lat;lon;timestamp;P1;durP1;ratioP1;P2;durP2;ratioP2
60416;SDS011;46263;44.726;10.396;2023-06-14T00:00:12;2.53;;;2.30;;
60416;SDS011;46263;44.726;10.396;2023-06-14T00:02:39;6.45;;;2.30;;
60416;SDS011;46263;44.726;10.396;2023-06-14T00:05:05;5.43;;;2.22;;
60416;SDS011;46263;44.726;10.396;2023-06-14T00:07:35;5.75;;;2.60;;
60416;SDS011;46263;44.726;10.396;2023-06-14T00:10:02;3.83;;;2.50;;
60416;SDS011;46263;44.726;10.396;2023-06-14T00:12:29;12.48;;;2.05;;
60416;SDS011;46263;44.726;10.396;2023-06-14T00:14:55;7.57;;;2.20;;
60416;SDS011;46263;44.726;10.396;2023-06-14T00:17:21;6.22;;;2.17;;
60416;SDS011;46263;44.726;10.396;2023-06-14T00:19:46;4.05;;;2.42;;
60416;SDS011;46263;44.726;10.396;2023-06-14T00:22:12;4.65;;;2.83;;
60416;SDS011;46263;44.726;10.396;2023-06-14T00:24:37;11.48;;;2.42;;
60416;SDS011;46263;44.726;10.396;2023-06-14T00:27:03;5.45;;;2.15;;
60416;SDS011;46263;44.726;10.396;2023-06-14T00:29:28;6.28;;;2.17;;
60416;SDS011;46263;44.726;10.396;2023-06-14T00:31:54;6.63;;;2.50;;
60416;SDS011;46263;44.726;10.396;2023-06-14T00:34:19;3.10;;;2.10;;
60416;SDS011;46263;44.726;10.396;2023-06-14T00:36:45;4.28;;;2.00;;
60416;SDS011;46263;44.726;10.396;2023-06-14T00:39:10;8.13;;;2.63;;
60416;SDS011;46263;44.726;10.396;2023-06-14T00:41:37;4.95;;;2.33;;
60416;SDS011;46263;44.726;10.396;2023-06-14T00:44:02;11.00;;;3.50;;
60416;SDS011;46263;44.726;10.396;2023-06-14T00:46:28;5.35;;;2.30;;
60416;SDS011;46263;44.726;10.396;2023-06-14T00:48:54;6.75;;;2.50;;
60416;SDS011;46263;44.726;10.396;2023-06-14T00:51:21;3.17;;;2.40;;
60416;SDS011;46263;44.726;10.396;2023-06-14T00:53:46;10.20;;;2.83;;
60416;SDS011;46263;44.726;10.396;2023-06-14T00:56:13;8.70;;;2.40;;
60416;SDS011;46263;44.726;10.396;2023-06-14T00:58:39;9.05;;;2.30;;
60416;SDS011;46263;44.726;10.396;2023-06-14T01:01:06;4.10;;;2.20;;
60416;SDS011;46263;44.726;10.396;2023-06-14T01:03:31;6.63;;;2.30;;
60416;SDS011;46263;44.726;10.396;2023-06-14T01:06:18;5.78;;;2.60;;
60416;SDS011;46263;44.726;10.396;2023-06-14T01:09:03;8.45;;;2.55;;
60416;SDS011;46263;44.726;10.396;2023-06-14T01:11:41;6.28;;;2.40;;
60416;SDS011;46263;44.726;10.396;2023-06-14T01:14:15;4.13;;;2.50;;
60416;SDS011;46263;44.726;10.396;2023-06-14T01:16:43;5.55;;;2.42;;
60416;SDS011;46263;44.726;10.396;2023-06-14T01:19:10;12.52;;;2.17;;
60416;SDS011;46263;44.726;10.396;2023-06-14T01:21:38;12.68;;;2.40;;
60416;SDS011;46263;44.726;10.396;2023-06-14T01:24:07;7.35;;;2.45;;
60416;SDS011;46263;44.726;10.396;2023-06-14T01:26:34;8.20;;;2.40;;
60416;SDS011;46263;44.726;10.396;2023-06-14T01:29:02;5.88;;;2.05;;
60416;SDS011;46263;44.726;10.396;2023-06-14T01:31:29;6.82;;;2.63;;
60416;SDS011;46263;44.726;10.396;2023-06-14T01:34:04;7.82;;;2.78;;
60416;SDS011;46263;44.726;10.396;2023-06-14T01:36:30;10.13;;;2.75;;
60416;SDS011;46263;44.726;10.396;2023-06-14T01:38:56;8.18;;;2.40;;
60416;SDS011;46263;44.726;10.396;2023-06-14T01:41:24;7.68;;;2.80;;
60416;SDS011;46263;44.726;10.396;2023-06-14T01:43:49;5.78;;;2.35;;
60416;SDS011;46263;44.726;10.396;2023-06-14T01:46:16;13.23;;;2.47;;
60416;SDS011;46263;44.726;10.396;2023-06-14T01:48:42;5.97;;;2.30;;
60416;SDS011;46263;44.726;10.396;2023-06-14T01:51:08;4.72;;;2.30;;
60416;SDS011;46263;44.726;10.396;2023-06-14T01:53:34;5.93;;;2.45;;
60416;SDS011;46263;44.726;10.396;2023-06-14T01:55:59;8.85;;;2.60;;
60416;SDS011;46263;44.726;10.396;2023-06-14T01:58:26;4.25;;;2.60;;
60416;SDS011;46263;44.726;10.396;2023-06-14T02:00:52;4.57;;;2.35;;
60416;SDS011;46263;44.726;10.396;2023-06-14T02:03:20;8.45;;;2.50;;
60416;SDS011;46263;44.726;10.396;2023-06-14T02:05:46;6.43;;;2.55;;
60416;SDS011;46263;44.726;10.396;2023-06-14T02:08:12;14.07;;;2.75;;
60416;SDS011;46263;44.726;10.396;2023-06-14T02:10:37;8.45;;;2.50;;
60416;SDS011;46263;44.726;10.396;2023-06-14T02:13:03;9.48;;;2.40;;
60416;SDS011;46263;44.726;10.396;2023-06-14T02:15:28;3.83;;;2.42;;
60416;SDS011;46263;44.726;10.396;2023-06-14T02:17:59;3.70;;;2.45;;
60416;SDS011;46263;44.726;10.396;2023-06-14T02:20:25;8.55;;;2.60;;
60416;SDS011;46263;44.726;10.396;2023-06-14T02:22:50;5.43;;;2.70;;
60416;SDS011;46263;44.726;10.396;2023-06-14T02:25:16;7.00;;;2.60;;
60416;SDS011;46263;44.726;10.396;2023-06-14T02:27:41;10.23;;;2.78;;
60416;SDS011;46263;44.726;10.396;2023-06-14T02:30:07;10.27;;;3.13;;
60416;SDS011;46263;44.726;10.396;2023-06-14T02:32:32;13.55;;;3.10;;
60416;SDS011;46263;44.726;10.396;2023-06-14T02:35:01;8.30;;;2.58;;
60416;SDS011;46263;44.726;10.396;2023-06-14T02:37:27;8.98;;;2.60;;
60416;SDS011;46263;44.726;10.396;2023-06-14T02:39:52;10.02;;;2.65;;
60416;SDS011;46263;44.726;10.396;2023-06-14T02:42:18;10.25;;;2.67;;
60416;SDS011;46263;44.726;10.396;2023-06-14T02:44:43;4.93;;;2.25;;
60416;SDS011;46263;44.726;10.396;2023-06-14T02:47:10;10.52;;;2.55;;
60416;SDS011;46263;44.726;10.396;2023-06-14T02:49:35;8.98;;;2.58;;
60416;SDS011;46263;44.726;10.396;2023-06-14T02:52:01;6.32;;;2.10;;
60416;SDS011;46263;44.726;10.396;2023-06-14T02:54:27;6.82;;;2.13;;
60416;SDS011;46263;44.726;10.396;2023-06-14T02:56:53;8.23;;;2.33;;
60416;SDS011;46263;44.726;10.396;2023-06-14T02:59:18;7.70;;;2.63;;
60416;SDS011;46263;44.726;10.396;2023-06-14T03:01:44;12.25;;;2.58;;
60416;SDS011;46263;44.726;10.396;2023-06-14T03:04:10;6.63;;;2.20;;
60416;SDS011;46263;44.726;10.396;2023-06-14T03:06:35;9.45;;;2.22;;
60416;SDS011;46263;44.726;10.396;2023-06-14T03:09:02;5.30;;;2.53;;
60416;SDS011;46263;44.726;10.396;2023-06-14T03:11:31;7.13;;;2.58;;
60416;SDS011;46263;44.726;10.396;2023-06-14T03:13:57;7.93;;;2.13;;
60416;SDS011;46263;44.726;10.396;2023-06-14T03:16:22;6.97;;;3.00;;
60416;SDS011;46263;44.726;10.396;2023-06-14T03:18:52;5.07;;;2.40;;
60416;SDS011;46263;44.726;10.396;2023-06-14T03:21:18;7.15;;;1.95;;
60416;SDS011;46263;44.726;10.396;2023-06-14T03:23:45;3.05;;;2.10;;
60416;SDS011;46263;44.726;10.396;2023-06-14T03:26:11;3.55;;;2.38;;
60416;SDS011;46263;44.726;10.396;2023-06-14T03:28:40;7.40;;;2.75;;
60416;SDS011;46263;44.726;10.396;2023-06-14T03:31:06;4.15;;;2.15;;
60416;SDS011;46263;44.726;10.396;2023-06-14T03:33:33;5.45;;;2.28;;
60416;SDS011;46263;44.726;10.396;2023-06-14T03:35:59;8.32;;;2.67;;
60416;SDS011;46263;44.726;10.396;2023-06-14T03:38:25;9.30;;;2.88;;
60416;SDS011;46263;44.726;10.396;2023-06-14T03:40:50;13.63;;;2.88;;
60416;SDS011;46263;44.726;10.396;2023-06-14T03:43:16;5.28;;;2.13;;
60416;SDS011;46263;44.726;10.396;2023-06-14T03:45:41;6.93;;;2.40;;
60416;SDS011;46263;44.726;10.396;2023-06-14T03:48:06;4.20;;;2.13;;
60416;SDS011;46263;44.726;10.396;2023-06-14T03:50:33;6.65;;;2.75;;
60416;SDS011;46263;44.726;10.396;2023-06-14T03:52:59;11.10;;;1.98;;
60416;SDS011;46263;44.726;10.396;2023-06-14T03:55:26;5.43;;;2.30;;
60416;SDS011;46263;44.726;10.396;2023-06-14T03:57:52;2.58;;;2.22;;
60416;SDS011;46263;44.726;10.396;2023-06-14T04:00:18;2.67;;;2.35;;
60416;SDS011;46263;44.726;10.396;2023-06-14T04:02:43;7.60;;;2.22;;
60416;SDS011;46263;44.726;10.396;2023-06-14T04:05:09;5.07;;;2.65;;
60416;SDS011;46263;44.726;10.396;2023-06-14T04:07:35;6.40;;;2.50;;
60416;SDS011;46263;44.726;10.396;2023-06-14T04:10:10;7.30;;;2.92;;
60416;SDS011;46263;44.726;10.396;2023-06-14T04:12:39;5.25;;;2.22;;
60416;SDS011;46263;44.726;10.396;2023-06-14T04:15:05;7.93;;;2.20;;
60416;SDS011;46263;44.726;10.396;2023-06-14T04:17:31;5.60;;;2.13;;
60416;SDS011;46263;44.726;10.396;2023-06-14T04:20:00;9.18;;;2.30;;
60416;SDS011;46263;44.726;10.396;2023-06-14T04:22:29;9.68;;;2.30;;
60416;SDS011;46263;44.726;10.396;2023-06-14T04:24:55;13.98;;;2.28;;
60416;SDS011;46263;44.726;10.396;2023-06-14T04:27:21;9.55;;;2.55;;
60416;SDS011;46263;44.726;10.396;2023-06-14T04:29:53;7.47;;;2.10;;
60416;SDS011;46263;44.726;10.396;2023-06-14T04:32:25;7.75;;;2.97;;
60416;SDS011;46263;44.726;10.396;2023-06-14T04:34:54;10.38;;;2.42;;
60416;SDS011;46263;44.726;10.396;2023-06-14T04:37:24;10.13;;;2.38;;
60416;SDS011;46263;44.726;10.396;2023-06-14T04:39:53;12.65;;;2.20;;
60416;SDS011;46263;44.726;10.396;2023-06-14T04:42:21;3.88;;;1.95;;
60416;SDS011;46263;44.726;10.396;2023-06-14T04:44:50;3.40;;;1.75;;
60416;SDS011;46263;44.726;10.396;2023-06-14T04:47:16;7.85;;;2.20;;
60416;SDS011;46263;44.726;10.396;2023-06-14T04:49:42;2.95;;;2.00;;
60416;SDS011;46263;44.726;10.396;2023-06-14T04:52:08;9.55;;;2.47;;
60416;SDS011;46263;44.726;10.396;2023-06-14T04:54:35;4.03;;;2.20;;
60416;SDS011;46263;44.726;10.396;2023-06-14T04:57:02;6.53;;;2.22;;
60416;SDS011;46263;44.726;10.396;2023-06-14T04:59:30;9.02;;;2.38;;
60416;SDS011;46263;44.726;10.396;2023-06-14T05:01:58;5.40;;;2.55;;
60416;SDS011;46263;44.726;10.396;2023-06-14T05:04:25;8.68;;;2.60;;
60416;SDS011;46263;44.726;10.396;2023-06-14T05:06:52;8.50;;;2.08;;
60416;SDS011;46263;44.726;10.396;2023-06-14T05:09:19;6.57;;;2.53;;
60416;SDS011;46263;44.726;10.396;2023-06-14T05:11:45;7.68;;;2.50;;
60416;SDS011;46263;44.726;10.396;2023-06-14T05:14:12;5.70;;;2.22;;
60416;SDS011;46263;44.726;10.396;2023-06-14T05:16:39;5.30;;;2.55;;
60416;SDS011;46263;44.726;10.396;2023-06-14T05:19:05;6.15;;;2.13;;
60416;SDS011;46263;44.726;10.396;2023-06-14T05:21:31;5.20;;;2.17;;
60416;SDS011;46263;44.726;10.396;2023-06-14T05:24:00;6.75;;;2.40;;
60416;SDS011;46263;44.726;10.396;2023-06-14T05:26:26;3.97;;;2.17;;
60416;SDS011;46263;44.726;10.396;2023-06-14T05:28:58;11.95;;;2.83;;
60416;SDS011;46263;44.726;10.396;2023-06-14T05:31:25;5.88;;;2.00;;
60416;SDS011;46263;44.726;10.396;2023-06-14T05:33:51;4.25;;;2.50;;
60416;SDS011;46263;44.726;10.396;2023-06-14T05:36:17;4.82;;;2.60;;
60416;SDS011;46263;44.726;10.396;2023-06-14T05:38:43;3.78;;;2.30;;
60416;SDS011;46263;44.726;10.396;2023-06-14T05:41:08;5.35;;;2.50;;
60416;SDS011;46263;44.726;10.396;2023-06-14T05:43:34;3.83;;;2.33;;
60416;SDS011;46263;44.726;10.396;2023-06-14T05:45:59;4.50;;;2.40;;
60416;SDS011;46263;44.726;10.396;2023-06-14T05:48:25;7.40;;;2.90;;
60416;SDS011;46263;44.726;10.396;2023-06-14T05:50:50;3.63;;;2.50;;
60416;SDS011;46263;44.726;10.396;2023-06-14T05:53:15;5.28;;;2.55;;
60416;SDS011;46263;44.726;10.396;2023-06-14T05:55:41;3.97;;;2.25;;
60416;SDS011;46263;44.726;10.396;2023-06-14T05:58:06;3.90;;;2.45;;
60416;SDS011;46263;44.726;10.396;2023-06-14T06:00:32;4.25;;;3.20;;
60416;SDS011;46263;44.726;10.396;2023-06-14T06:02:57;4.15;;;3.13;;
60416;SDS011;46263;44.726;10.396;2023-06-14T06:05:23;6.15;;;3.00;;
60416;SDS011;46263;44.726;10.396;2023-06-14T06:07:48;3.50;;;3.20;;
60416;SDS011;46263;44.726;10.396;2023-06-14T06:10:14;6.45;;;3.58;;
60416;SDS011;46263;44.726;10.396;2023-06-14T06:12:41;5.85;;;3.60;;
60416;SDS011;46263;44.726;10.396;2023-06-14T06:15:07;4.10;;;3.70;;
60416;SDS011;46263;44.726;10.396;2023-06-14T06:17:37;4.65;;;3.75;;
60416;SDS011;46263;44.726;10.396;2023-06-14T06:20:04;8.05;;;3.97;;
60416;SDS011;46263;44.726;10.396;2023-06-14T06:22:33;11.50;;;4.32;;
60416;SDS011;46263;44.726;10.396;2023-06-14T06:24:58;4.05;;;3.70;;
60416;SDS011;46263;44.726;10.396;2023-06-14T06:27:24;4.80;;;4.25;;
60416;SDS011;46263;44.726;10.396;2023-06-14T06:29:49;8.68;;;4.22;;
60416;SDS011;46263;44.726;10.396;2023-06-14T06:32:16;5.72;;;3.92;;
60416;SDS011;46263;44.726;10.396;2023-06-14T06:34:42;4.70;;;4.10;;
60416;SDS011;46263;44.726;10.396;2023-06-14T06:37:07;5.88;;;4.05;;
60416;SDS011;46263;44.726;10.396;2023-06-14T06:39:33;7.25;;;3.97;;
60416;SDS011;46263;44.726;10.396;2023-06-14T06:41:58;6.82;;;4.28;;
60416;SDS011;46263;44.726;10.396;2023-06-14T06:44:24;5.30;;;4.15;;
60416;SDS011;46263;44.726;10.396;2023-06-14T06:46:50;6.45;;;4.07;;
60416;SDS011;46263;44.726;10.396;2023-06-14T06:49:15;7.13;;;4.70;;
60416;SDS011;46263;44.726;10.396;2023-06-14T06:51:41;6.15;;;4.38;;
60416;SDS011;46263;44.726;10.396;2023-06-14T06:54:08;9.88;;;4.90;;
60416;SDS011;46263;44.726;10.396;2023-06-14T06:56:33;6.82;;;5.13;;
60416;SDS011;46263;44.726;10.396;2023-06-14T06:58:59;6.40;;;5.10;;
60416;SDS011;46263;44.726;10.396;2023-06-14T07:01:25;11.82;;;5.70;;
60416;SDS011;46263;44.726;10.396;2023-06-14T07:03:51;11.15;;;5.60;;
60416;SDS011;46263;44.726;10.396;2023-06-14T07:06:17;6.00;;;5.13;;
60416;SDS011;46263;44.726;10.396;2023-06-14T07:08:44;5.80;;;4.50;;
60416;SDS011;46263;44.726;10.396;2023-06-14T07:11:09;7.63;;;5.22;;
60416;SDS011;46263;44.726;10.396;2023-06-14T07:13:35;9.77;;;5.10;;
60416;SDS011;46263;44.726;10.396;2023-06-14T07:16:00;9.02;;;5.72;;
60416;SDS011;46263;44.726;10.396;2023-06-14T07:18:26;9.23;;;6.85;;
60416;SDS011;46263;44.726;10.396;2023-06-14T07:20:52;9.88;;;6.47;;
60416;SDS011;46263;44.726;10.396;2023-06-14T07:23:19;10.00;;;7.03;;
60416;SDS011;46263;44.726;10.396;2023-06-14T07:25:45;9.90;;;6.43;;
60416;SDS011;46263;44.726;10.396;2023-06-14T07:28:11;10.15;;;6.45;;
60416;SDS011;46263;44.726;10.396;2023-06-14T07:30:37;8.63;;;5.97;;
60416;SDS011;46263;44.726;10.396;2023-06-14T07:33:02;10.48;;;6.75;;
60416;SDS011;46263;44.726;10.396;2023-06-14T07:35:28;9.45;;;6.25;;
60416;SDS011;46263;44.726;10.396;2023-06-14T07:37:53;9.77;;;6.28;;
60416;SDS011;46263;44.726;10.396;2023-06-14T07:40:18;6.60;;;5.75;;
60416;SDS011;46263;44.726;10.396;2023-06-14T07:42:44;9.00;;;5.45;;
60416;SDS011;46263;44.726;10.396;2023-06-14T07:45:11;7.38;;;5.35;;
60416;SDS011;46263;44.726;10.396;2023-06-14T07:47:38;5.95;;;5.18;;
60416;SDS011;46263;44.726;10.396;2023-06-14T07:50:04;8.05;;;5.93;;
60416;SDS011;46263;44.726;10.396;2023-06-14T07:52:29;8.40;;;5.93;;
60416;SDS011;46263;44.726;10.396;2023-06-14T07:54:55;7.25;;;5.93;;
60416;SDS011;46263;44.726;10.396;2023-06-14T07:57:21;8.77;;;5.95;;
60416;SDS011;46263;44.726;10.396;2023-06-14T07:59:47;8.65;;;5.80;;
60416;SDS011;46263;44.726;10.396;2023-06-14T08:02:14;9.50;;;5.93;;
60416;SDS011;46263;44.726;10.396;2023-06-14T08:04:39;6.80;;;6.03;;
60416;SDS011;46263;44.726;10.396;2023-06-14T08:07:05;8.77;;;6.68;;
60416;SDS011;46263;44.726;10.396;2023-06-14T08:09:31;7.88;;;6.35;;
60416;SDS011;46263;44.726;10.396;2023-06-14T08:11:56;8.70;;;6.32;;
60416;SDS011;46263;44.726;10.396;2023-06-14T08:14:22;8.98;;;6.85;;
60416;SDS011;46263;44.726;10.396;2023-06-14T08:16:48;9.85;;;6.82;;
60416;SDS011;46263;44.726;10.396;2023-06-14T08:19:13;6.90;;;5.72;;
60416;SDS011;46263;44.726;10.396;2023-06-14T08:21:39;9.10;;;6.88;;
60416;SDS011;46263;44.726;10.396;2023-06-14T08:24:05;13.93;;;7.30;;
60416;SDS011;46263;44.726;10.396;2023-06-14T08:26:30;12.60;;;8.10;;
60416;SDS011;46263;44.726;10.396;2023-06-14T08:28:57;9.05;;;7.32;;
60416;SDS011;46263;44.726;10.396;2023-06-14T08:31:23;11.05;;;8.40;;
60416;SDS011;46263;44.726;10.396;2023-06-14T08:33:49;10.68;;;7.82;;
60416;SDS011;46263;44.726;10.396;2023-06-14T08:36:15;10.77;;;7.30;;
60416;SDS011;46263;44.726;10.396;2023-06-14T08:38:40;8.70;;;7.20;;
60416;SDS011;46263;44.726;10.396;2023-06-14T08:41:06;11.45;;;8.70;;
60416;SDS011;46263;44.726;10.396;2023-06-14T08:43:33;12.70;;;7.75;;
60416;SDS011;46263;44.726;10.396;2023-06-14T08:46:00;8.32;;;6.88;;
60416;SDS011;46263;44.726;10.396;2023-06-14T08:48:27;10.70;;;8.15;;
60416;SDS011;46263;44.726;10.396;2023-06-14T08:50:54;11.80;;;7.55;;
60416;SDS011;46263;44.726;10.396;2023-06-14T08:53:27;10.80;;;7.53;;
60416;SDS011;46263;44.726;10.396;2023-06-14T08:55:57;10.20;;;7.97;;
60416;SDS011;46263;44.726;10.396;2023-06-14T09:00:59;11.27;;;6.80;;
60416;SDS011;46263;44.726;10.396;2023-06-14T09:03:28;10.98;;;6.78;;
60416;SDS011;46263;44.726;10.396;2023-06-14T09:05:59;8.52;;;6.57;;
60416;SDS011;46263;44.726;10.396;2023-06-14T09:08:26;7.78;;;6.50;;
60416;SDS011;46263;44.726;10.396;2023-06-14T09:10:55;11.52;;;8.25;;
60416;SDS011;46263;44.726;10.396;2023-06-14T09:13:21;8.40;;;6.75;;
60416;SDS011;46263;44.726;10.396;2023-06-14T09:15:47;6.63;;;5.70;;
60416;SDS011;46263;44.726;10.396;2023-06-14T09:18:13;6.57;;;5.90;;
60416;SDS011;46263;44.726;10.396;2023-06-14T09:20:38;5.10;;;4.22;;
60416;SDS011;46263;44.726;10.396;2023-06-14T09:23:05;10.68;;;3.45;;
60416;SDS011;46263;44.726;10.396;2023-06-14T09:25:32;8.30;;;5.15;;
60416;SDS011;46263;44.726;10.396;2023-06-14T09:27:57;4.68;;;4.13;;
60416;SDS011;46263;44.726;10.396;2023-06-14T09:30:23;5.78;;;4.50;;
60416;SDS011;46263;44.726;10.396;2023-06-14T09:32:48;4.45;;;3.75;;
60416;SDS011;46263;44.726;10.396;2023-06-14T09:35:17;4.18;;;3.08;;
60416;SDS011;46263;44.726;10.396;2023-06-14T09:37:42;2.30;;;2.10;;
60416;SDS011;46263;44.726;10.396;2023-06-14T09:40:08;3.17;;;2.88;;
60416;SDS011;46263;44.726;10.396;2023-06-14T09:42:34;2.70;;;2.50;;
60416;SDS011;46263;44.726;10.396;2023-06-14T09:45:02;3.05;;;2.80;;
60416;SDS011;46263;44.726;10.396;2023-06-14T09:47:28;3.97;;;2.65;;
60416;SDS011;46263;44.726;10.396;2023-06-14T09:49:54;5.50;;;3.08;;
60416;SDS011;46263;44.726;10.396;2023-06-14T09:52:20;3.83;;;2.30;;
60416;SDS011;46263;44.726;10.396;2023-06-14T09:54:47;3.38;;;2.63;;
60416;SDS011;46263;44.726;10.396;2023-06-14T09:57:17;2.95;;;2.65;;
60416;SDS011;46263;44.726;10.396;2023-06-14T09:59:47;3.72;;;2.60;;
60416;SDS011;46263;44.726;10.396;2023-06-14T10:02:29;3.35;;;3.05;;
60416;SDS011;46263;44.726;10.396;2023-06-14T10:05:05;3.63;;;3.22;;
60416;SDS011;46263;44.726;10.396;2023-06-14T10:07:38;5.72;;;3.40;;
60416;SDS011;46263;44.726;10.396;2023-06-14T10:10:14;4.80;;;3.92;;
60416;SDS011;46263;44.726;10.396;2023-06-14T10:12:40;4.88;;;3.47;;
60416;SDS011;46263;44.726;10.396;2023-06-14T10:15:07;4.38;;;2.92;;
60416;SDS011;46263;44.726;10.396;2023-06-14T10:17:46;4.05;;;2.95;;
60416;SDS011;46263;44.726;10.396;2023-06-14T10:20:21;5.20;;;3.80;;
60416;SDS011;46263;44.726;10.396;2023-06-14T10:22:51;3.22;;;2.92;;
60416;SDS011;46263;44.726;10.396;2023-06-14T10:25:30;4.22;;;3.80;;
60416;SDS011;46263;44.726;10.396;2023-06-14T10:33:34;6.30;;;5.20;;
60416;SDS011;46263;44.726;10.396;2023-06-14T10:36:11;6.32;;;4.05;;
60416;SDS011;46263;44.726;10.396;2023-06-14T10:39:03;3.53;;;3.22;;
60416;SDS011;46263;44.726;10.396;2023-06-14T10:41:37;5.97;;;3.60;;
60416;SDS011;46263;44.726;10.396;2023-06-14T10:46:37;5.18;;;3.72;;
60416;SDS011;46263;44.726;10.396;2023-06-14T10:49:11;4.28;;;3.88;;
60416;SDS011;46263;44.726;10.396;2023-06-14T10:51:40;3.88;;;3.55;;
60416;SDS011;46263;44.726;10.396;2023-06-14T10:54:14;5.25;;;3.67;;
60416;SDS011;46263;44.726;10.396;2023-06-14T10:56:50;4.95;;;3.50;;
60416;SDS011;46263;44.726;10.396;2023-06-14T10:59:17;5.90;;;4.53;;
60416;SDS011;46263;44.726;10.396;2023-06-14T11:04:49;5.60;;;3.50;;
60416;SDS011;46263;44.726;10.396;2023-06-14T11:13:05;3.92;;;3.53;;
60416;SDS011;46263;44.726;10.396;2023-06-14T11:15:32;3.95;;;3.42;;
60416;SDS011;46263;44.726;10.396;2023-06-14T11:18:05;3.40;;;3.10;;
60416;SDS011;46263;44.726;10.396;2023-06-14T11:20:32;7.35;;;3.47;;
60416;SDS011;46263;44.726;10.396;2023-06-14T11:22:59;9.05;;;5.90;;
60416;SDS011;46263;44.726;10.396;2023-06-14T11:25:25;6.88;;;5.72;;
60416;SDS011;46263;44.726;10.396;2023-06-14T11:27:53;8.85;;;6.65;;
60416;SDS011;46263;44.726;10.396;2023-06-14T11:30:20;8.55;;;5.80;;
60416;SDS011;46263;44.726;10.396;2023-06-14T11:32:47;5.22;;;4.72;;
60416;SDS011;46263;44.726;10.396;2023-06-14T11:35:12;6.70;;;4.82;;
60416;SDS011;46263;44.726;10.396;2023-06-14T11:37:39;7.72;;;5.70;;
60416;SDS011;46263;44.726;10.396;2023-06-14T11:40:06;8.55;;;7.65;;
60416;SDS011;46263;44.726;10.396;2023-06-14T11:42:36;7.47;;;6.68;;
60416;SDS011;46263;44.726;10.396;2023-06-14T11:45:02;7.10;;;6.38;;
60416;SDS011;46263;44.726;10.396;2023-06-14T11:47:33;7.05;;;6.35;;
60416;SDS011;46263;44.726;10.396;2023-06-14T11:49:59;6.40;;;4.97;;
60416;SDS011;46263;44.726;10.396;2023-06-14T11:52:25;7.40;;;5.75;;
60416;SDS011;46263;44.726;10.396;2023-06-14T11:54:51;7.65;;;6.60;;
60416;SDS011;46263;44.726;10.396;2023-06-14T11:57:17;6.05;;;5.35;;
60416;SDS011;46263;44.726;10.396;2023-06-14T11:59:43;8.15;;;5.53;;
60416;SDS011;46263;44.726;10.396;2023-06-14T12:02:09;7.88;;;6.85;;
60416;SDS011;46263;44.726;10.396;2023-06-14T12:04:40;7.28;;;6.22;;
60416;SDS011;46263;44.726;10.396;2023-06-14T12:07:13;7.03;;;6.30;;
60416;SDS011;46263;44.726;10.396;2023-06-14T12:12:24;10.25;;;6.85;;
60416;SDS011;46263;44.726;10.396;2023-06-14T12:14:51;6.10;;;5.50;;
60416;SDS011;46263;44.726;10.396;2023-06-14T12:17:17;9.07;;;6.22;;
60416;SDS011;46263;44.726;10.396;2023-06-14T12:19:44;6.25;;;5.65;;
60416;SDS011;46263;44.726;10.396;2023-06-14T12:22:11;12.98;;;6.60;;
60416;SDS011;46263;44.726;10.396;2023-06-14T12:24:37;9.80;;;6.03;;
60416;SDS011;46263;44.726;10.396;2023-06-14T12:27:03;8.73;;;6.03;;
60416;SDS011;46263;44.726;10.396;2023-06-14T12:29:29;7.20;;;5.78;;
60416;SDS011;46263;44.726;10.396;2023-06-14T12:31:55;6.07;;;5.47;;
60416;SDS011;46263;44.726;10.396;2023-06-14T12:34:25;6.20;;;5.30;;
60416;SDS011;46263;44.726;10.396;2023-06-14T12:36:52;5.78;;;5.22;;
60416;SDS011;46263;44.726;10.396;2023-06-14T12:39:18;7.93;;;5.00;;
60416;SDS011;46263;44.726;10.396;2023-06-14T12:41:43;5.15;;;4.65;;
60416;SDS011;46263;44.726;10.396;2023-06-14T12:44:10;5.60;;;5.10;;
60416;SDS011;46263;44.726;10.396;2023-06-14T12:46:36;5.13;;;4.63;;
60416;SDS011;46263;44.726;10.396;2023-06-14T12:49:02;5.57;;;4.80;;
60416;SDS011;46263;44.726;10.396;2023-06-14T12:51:28;8.77;;;5.10;;
60416;SDS011;46263;44.726;10.396;2023-06-14T12:53:53;6.03;;;5.18;;
60416;SDS011;46263;44.726;10.396;2023-06-14T12:56:19;6.25;;;4.97;;
60416;SDS011;46263;44.726;10.396;2023-06-14T12:58:45;5.63;;;4.97;;
60416;SDS011;46263;44.726;10.396;2023-06-14T13:01:10;6.18;;;4.55;;
60416;SDS011;46263;44.726;10.396;2023-06-14T13:03:35;7.10;;;4.40;;
60416;SDS011;46263;44.726;10.396;2023-06-14T13:06:01;7.80;;;4.68;;
60416;SDS011;46263;44.726;10.396;2023-06-14T13:08:28;5.65;;;5.07;;
60416;SDS011;46263;44.726;10.396;2023-06-14T13:10:53;4.88;;;4.35;;
60416;SDS011;46263;44.726;10.396;2023-06-14T13:13:19;5.70;;;4.90;;
60416;SDS011;46263;44.726;10.396;2023-06-14T13:15:44;5.53;;;4.75;;
60416;SDS011;46263;44.726;10.396;2023-06-14T13:18:11;6.38;;;5.18;;
60416;SDS011;46263;44.726;10.396;2023-06-14T13:20:38;5.53;;;4.88;;
60416;SDS011;46263;44.726;10.396;2023-06-14T13:23:04;6.47;;;4.72;;
60416;SDS011;46263;44.726;10.396;2023-06-14T13:25:32;7.05;;;5.32;;
60416;SDS011;46263;44.726;10.396;2023-06-14T13:28:03;5.28;;;4.68;;
60416;SDS011;46263;44.726;10.396;2023-06-14T13:30:30;5.55;;;5.05;;
60416;SDS011;46263;44.726;10.396;2023-06-14T13:32:56;8.98;;;5.03;;
60416;SDS011;46263;44.726;10.396;2023-06-14T13:35:22;6.38;;;4.93;;
60416;SDS011;46263;44.726;10.396;2023-06-14T13:37:48;6.65;;;5.13;;
60416;SDS011;46263;44.726;10.396;2023-06-14T13:40:13;5.88;;;5.30;;
60416;SDS011;46263;44.726;10.396;2023-06-14T13:42:39;6.47;;;5.88;;
60416;SDS011;46263;44.726;10.396;2023-06-14T13:45:05;7.07;;;4.72;;
60416;SDS011;46263;44.726;10.396;2023-06-14T13:47:31;7.07;;;5.20;;
60416;SDS011;46263;44.726;10.396;2023-06-14T13:49:57;5.47;;;4.95;;
60416;SDS011;46263;44.726;10.396;2023-06-14T13:52:23;12.70;;;4.53;;
60416;SDS011;46263;44.726;10.396;2023-06-14T13:54:49;4.75;;;4.30;;
60416;SDS011;46263;44.726;10.396;2023-06-14T13:57:14;5.43;;;4.88;;
60416;SDS011;46263;44.726;10.396;2023-06-14T13:59:41;6.60;;;4.75;;
60416;SDS011;46263;44.726;10.396;2023-06-14T14:02:07;5.10;;;4.60;;
60416;SDS011;46263;44.726;10.396;2023-06-14T14:04:33;5.97;;;4.72;;
60416;SDS011;46263;44.726;10.396;2023-06-14T14:07:03;5.80;;;4.60;;
60416;SDS011;46263;44.726;10.396;2023-06-14T14:09:29;6.57;;;4.47;;
60416;SDS011;46263;44.726;10.396;2023-06-14T14:11:55;5.07;;;4.53;;
60416;SDS011;46263;44.726;10.396;2023-06-14T14:14:21;4.50;;;3.97;;
60416;SDS011;46263;44.726;10.396;2023-06-14T14:16:48;5.03;;;4.53;;
60416;SDS011;46263;44.726;10.396;2023-06-14T14:19:14;6.05;;;4.70;;
60416;SDS011;46263;44.726;10.396;2023-06-14T14:21:39;5.50;;;3.97;;
60416;SDS011;46263;44.726;10.396;2023-06-14T14:24:05;8.45;;;4.18;;
60416;SDS011;46263;44.726;10.396;2023-06-14T14:26:30;8.50;;;4.22;;
60416;SDS011;46263;44.726;10.396;2023-06-14T14:28:56;5.32;;;4.00;;
60416;SDS011;46263;44.726;10.396;2023-06-14T14:31:21;8.07;;;4.43;;
60416;SDS011;46263;44.726;10.396;2023-06-14T14:33:47;4.25;;;3.83;;
60416;SDS011;46263;44.726;10.396;2023-06-14T14:36:12;5.50;;;4.10;;
60416;SDS011;46263;44.726;10.396;2023-06-14T14:38:38;7.45;;;4.63;;
60416;SDS011;46263;44.726;10.396;2023-06-14T14:41:04;4.75;;;3.92;;
60416;SDS011;46263;44.726;10.396;2023-06-14T14:43:30;4.80;;;3.78;;
60416;SDS011;46263;44.726;10.396;2023-06-14T14:45:56;6.28;;;4.07;;
60416;SDS011;46263;44.726;10.396;2023-06-14T14:48:22;5.22;;;4.68;;
60416;SDS011;46263;44.726;10.396;2023-06-14T14:50:47;5.13;;;4.70;;
60416;SDS011;46263;44.726;10.396;2023-06-14T14:53:13;4.38;;;3.90;;